sensor_id;sensor_type;location;lat;lon;timestamp;temperature;humidity
74940;HTU21D;63505;45.226;37.908;2023-02-28T00:00:31;11.05;58.60
74940;HTU21D;63505;45.226;37.908;2023-02-28T00:02:57;11.02;58.60
74940;HTU21D;63505;45.226;37.908;2023-02-28T00:05:24;11.00;58.66
74940;HTU21D;63505;45.226;37.908;2023-02-28T00:07:51;10.97;58.70
74940;HTU21D;63505;45.226;37.908;2023-02-28T00:10:20;10.96;58.71
74940;HTU21D;63505;45.226;37.908;2023-02-28T00:12:49;10.94;58.72
74940;HTU21D;63505;45.226;37.908;2023-02-28T00:15:15;10.93;58.71
74940;HTU21D;63505;45.226;37.908;2023-02-28T00:17:42;10.94;58.72
74940;HTU21D;63505;45.226;37.908;2023-02-28T00:20:08;11.01;58.63
74940;HTU21D;63505;45.226;37.908;2023-02-28T00:22:36;11.11;58.49
74940;HTU21D;63505;45.226;37.908;2023-02-28T00:25:03;11.25;58.27
74940;HTU21D;63505;45.226;37.908;2023-02-28T00:27:30;11.38;58.05
74940;HTU21D;63505;45.226;37.908;2023-02-28T00:29:55;11.44;57.90
74940;HTU21D;63505;45.226;37.908;2023-02-28T00:32:21;11.49;57.77
74940;HTU21D;63505;45.226;37.908;2023-02-28T00:34:47;11.55;57.70
74940;HTU21D;63505;45.226;37.908;2023-02-28T00:37:14;11.56;57.65
74940;HTU21D;63505;45.226;37.908;2023-02-28T00:39:40;11.55;57.64
74940;HTU21D;63505;45.226;37.908;2023-02-28T00:42:07;11.53;57.65
74940;HTU21D;63505;45.226;37.908;2023-02-28T00:44:33;11.51;57.69
74940;HTU21D;63505;45.226;37.908;2023-02-28T00:47:00;11.46;57.73
74940;HTU21D;63505;45.226;37.908;2023-02-28T00:49:26;11.43;57.80
74940;HTU21D;63505;45.226;37.908;2023-02-28T00:51:53;11.38;57.84
74940;HTU21D;63505;45.226;37.908;2023-02-28T00:54:20;11.36;57.87
74940;HTU21D;63505;45.226;37.908;2023-02-28T00:56:47;11.32;57.89
74940;HTU21D;63505;45.226;37.908;2023-02-28T00:59:14;11.33;57.84
74940;HTU21D;63505;45.226;37.908;2023-02-28T01:01:40;11.32;57.82
74940;HTU21D;63505;45.226;37.908;2023-02-28T01:04:07;11.33;57.84
74940;HTU21D;63505;45.226;37.908;2023-02-28T01:06:35;11.45;57.58
74940;HTU21D;63505;45.226;37.908;2023-02-28T01:09:03;11.46;57.47
74940;HTU21D;63505;45.226;37.908;2023-02-28T01:11:29;11.44;57.50
74940;HTU21D;63505;45.226;37.908;2023-02-28T01:13:55;11.40;57.60
74940;HTU21D;63505;45.226;37.908;2023-02-28T01:16:21;11.40;57.60
74940;HTU21D;63505;45.226;37.908;2023-02-28T01:18:47;11.37;57.64
74940;HTU21D;63505;45.226;37.908;2023-02-28T01:21:16;11.31;57.77
74940;HTU21D;63505;45.226;37.908;2023-02-28T01:23:43;11.26;57.96
74940;HTU21D;63505;45.226;37.908;2023-02-28T01:26:12;11.19;58.16
74940;HTU21D;63505;45.226;37.908;2023-02-28T01:28:39;11.12;58.32
74940;HTU21D;63505;45.226;37.908;2023-02-28T01:31:05;11.03;58.42
74940;HTU21D;63505;45.226;37.908;2023-02-28T01:33:32;11.00;58.57
74940;HTU21D;63505;45.226;37.908;2023-02-28T01:36:00;10.98;58.60
74940;HTU21D;63505;45.226;37.908;2023-02-28T01:38:26;10.96;58.66
74940;HTU21D;63505;45.226;37.908;2023-02-28T01:40:53;10.99;58.67
74940;HTU21D;63505;45.226;37.908;2023-02-28T01:43:23;11.01;58.70
74940;HTU21D;63505;45.226;37.908;2023-02-28T01:45:50;11.04;58.67
74940;HTU21D;63505;45.226;37.908;2023-02-28T01:48:17;11.07;58.69
74940;HTU21D;63505;45.226;37.908;2023-02-28T01:50:46;11.07;58.66
74940;HTU21D;63505;45.226;37.908;2023-02-28T01:53:18;11.05;58.64
74940;HTU21D;63505;45.226;37.908;2023-02-28T01:55:47;11.03;58.69
74940;HTU21D;63505;45.226;37.908;2023-02-28T01:58:14;11.03;58.73
74940;HTU21D;63505;45.226;37.908;2023-02-28T02:00:41;11.01;58.70
74940;HTU21D;63505;45.226;37.908;2023-02-28T02:03:13;10.97;58.76
74940;HTU21D;63505;45.226;37.908;2023-02-28T02:05:41;10.95;58.89
74940;HTU21D;63505;45.226;37.908;2023-02-28T02:08:17;10.96;58.84
74940;HTU21D;63505;45.226;37.908;2023-02-28T02:11:04;10.94;58.89
74940;HTU21D;63505;45.226;37.908;2023-02-28T02:28:15;10.92;59.06
74940;HTU21D;63505;45.226;37.908;2023-02-28T02:36:16;10.87;59.22
74940;HTU21D;63505;45.226;37.908;2023-02-28T02:38:53;10.82;59.30
74940;HTU21D;63505;45.226;37.908;2023-02-28T02:44:04;10.71;59.47
74940;HTU21D;63505;45.226;37.908;2023-02-28T02:46:37;10.67;59.48
74940;HTU21D;63505;45.226;37.908;2023-02-28T02:49:07;10.63;59.57
74940;HTU21D;63505;45.226;37.908;2023-02-28T02:51:35;10.62;59.61
74940;HTU21D;63505;45.226;37.908;2023-02-28T02:54:30;10.56;59.67
74940;HTU21D;63505;45.226;37.908;2023-02-28T02:57:00;10.42;59.78
74940;HTU21D;63505;45.226;37.908;2023-02-28T02:59:28;10.26;60.04
74940;HTU21D;63505;45.226;37.908;2023-02-28T03:01:59;10.14;60.25
74940;HTU21D;63505;45.226;37.908;2023-02-28T03:04:29;10.03;60.45
74940;HTU21D;63505;45.226;37.908;2023-02-28T03:06:58;9.94;60.76
74940;HTU21D;63505;45.226;37.908;2023-02-28T03:09:25;9.88;60.89
74940;HTU21D;63505;45.226;37.908;2023-02-28T03:11:54;9.85;60.92
74940;HTU21D;63505;45.226;37.908;2023-02-28T03:23:19;9.90;61.28
74940;HTU21D;63505;45.226;37.908;2023-02-28T03:28:27;9.99;61.21
74940;HTU21D;63505;45.226;37.908;2023-02-28T03:31:07;10.06;61.11
74940;HTU21D;63505;45.226;37.908;2023-02-28T03:33:43;10.07;61.05
74940;HTU21D;63505;45.226;37.908;2023-02-28T03:36:13;10.05;61.09
74940;HTU21D;63505;45.226;37.908;2023-02-28T03:38:46;10.04;61.12
74940;HTU21D;63505;45.226;37.908;2023-02-28T03:41:24;10.00;61.19
74940;HTU21D;63505;45.226;37.908;2023-02-28T03:43:58;9.92;61.40
74940;HTU21D;63505;45.226;37.908;2023-02-28T03:46:29;9.83;61.76
74940;HTU21D;63505;45.226;37.908;2023-02-28T03:48:59;9.79;61.90
74940;HTU21D;63505;45.226;37.908;2023-02-28T03:51:29;9.83;62.00
74940;HTU21D;63505;45.226;37.908;2023-02-28T03:54:06;9.77;62.14
74940;HTU21D;63505;45.226;37.908;2023-02-28T03:57:04;9.65;62.47
74940;HTU21D;63505;45.226;37.908;2023-02-28T03:59:37;9.57;62.50
74940;HTU21D;63505;45.226;37.908;2023-02-28T04:02:04;9.52;62.56
74940;HTU21D;63505;45.226;37.908;2023-02-28T04:04:30;9.49;62.62
74940;HTU21D;63505;45.226;37.908;2023-02-28T04:07:08;9.46;62.72
74940;HTU21D;63505;45.226;37.908;2023-02-28T04:09:37;9.42;62.70
74940;HTU21D;63505;45.226;37.908;2023-02-28T04:12:03;9.39;62.77
74940;HTU21D;63505;45.226;37.908;2023-02-28T04:14:29;9.37;62.86
74940;HTU21D;63505;45.226;37.908;2023-02-28T04:16:55;9.33;62.94
74940;HTU21D;63505;45.226;37.908;2023-02-28T04:19:21;9.32;63.02
74940;HTU21D;63505;45.226;37.908;2023-02-28T04:21:52;9.29;63.09
74940;HTU21D;63505;45.226;37.908;2023-02-28T04:24:23;9.23;63.18
74940;HTU21D;63505;45.226;37.908;2023-02-28T04:26:52;9.19;63.31
74940;HTU21D;63505;45.226;37.908;2023-02-28T04:29:29;9.17;63.41
74940;HTU21D;63505;45.226;37.908;2023-02-28T04:31:56;9.12;63.47
74940;HTU21D;63505;45.226;37.908;2023-02-28T04:34:26;9.09;63.56
74940;HTU21D;63505;45.226;37.908;2023-02-28T04:36:52;9.05;63.65
74940;HTU21D;63505;45.226;37.908;2023-02-28T04:39:21;9.04;63.76
74940;HTU21D;63505;45.226;37.908;2023-02-28T04:41:48;9.03;63.56
74940;HTU21D;63505;45.226;37.908;2023-02-28T04:44:14;9.02;63.63
74940;HTU21D;63505;45.226;37.908;2023-02-28T04:46:40;9.05;63.72
74940;HTU21D;63505;45.226;37.908;2023-02-28T04:49:06;9.06;63.79
74940;HTU21D;63505;45.226;37.908;2023-02-28T04:51:33;9.07;63.89
74940;HTU21D;63505;45.226;37.908;2023-02-28T04:53:59;9.08;63.98
74940;HTU21D;63505;45.226;37.908;2023-02-28T04:56:25;9.11;64.05
74940;HTU21D;63505;45.226;37.908;2023-02-28T04:58:51;9.16;64.11
74940;HTU21D;63505;45.226;37.908;2023-02-28T05:01:29;9.21;64.15
74940;HTU21D;63505;45.226;37.908;2023-02-28T05:03:57;9.25;64.15
74940;HTU21D;63505;45.226;37.908;2023-02-28T05:06:26;9.31;64.21
74940;HTU21D;63505;45.226;37.908;2023-02-28T05:08:53;9.35;64.29
74940;HTU21D;63505;45.226;37.908;2023-02-28T05:11:25;9.39;64.36
74940;HTU21D;63505;45.226;37.908;2023-02-28T05:13:52;9.45;64.42
74940;HTU21D;63505;45.226;37.908;2023-02-28T05:16:20;9.51;64.50
74940;HTU21D;63505;45.226;37.908;2023-02-28T05:18:46;9.57;64.59
74940;HTU21D;63505;45.226;37.908;2023-02-28T05:21:49;9.63;64.79
74940;HTU21D;63505;45.226;37.908;2023-02-28T05:24:15;9.68;64.84
74940;HTU21D;63505;45.226;37.908;2023-02-28T05:26:49;9.78;64.92
74940;HTU21D;63505;45.226;37.908;2023-02-28T05:29:16;9.91;65.04
74940;HTU21D;63505;45.226;37.908;2023-02-28T05:31:42;10.00;65.19
74940;HTU21D;63505;45.226;37.908;2023-02-28T05:34:08;10.10;65.28
74940;HTU21D;63505;45.226;37.908;2023-02-28T05:36:36;10.23;65.40
74940;HTU21D;63505;45.226;37.908;2023-02-28T05:39:02;10.39;65.55
74940;HTU21D;63505;45.226;37.908;2023-02-28T05:41:28;10.54;65.71
74940;HTU21D;63505;45.226;37.908;2023-02-28T05:43:54;10.57;66.01
74940;HTU21D;63505;45.226;37.908;2023-02-28T05:46:21;10.54;66.26
74940;HTU21D;63505;45.226;37.908;2023-02-28T05:48:47;10.45;66.63
74940;HTU21D;63505;45.226;37.908;2023-02-28T05:51:13;10.35;66.93
74940;HTU21D;63505;45.226;37.908;2023-02-28T05:53:39;10.15;67.33
74940;HTU21D;63505;45.226;37.908;2023-02-28T05:56:05;9.96;67.76
74940;HTU21D;63505;45.226;37.908;2023-02-28T05:58:31;9.83;68.10
74940;HTU21D;63505;45.226;37.908;2023-02-28T06:01:35;9.71;68.39
74940;HTU21D;63505;45.226;37.908;2023-02-28T06:04:03;9.65;68.51
74940;HTU21D;63505;45.226;37.908;2023-02-28T06:06:29;9.51;68.68
74940;HTU21D;63505;45.226;37.908;2023-02-28T06:08:56;9.40;68.95
74940;HTU21D;63505;45.226;37.908;2023-02-28T06:11:22;9.25;69.24
74940;HTU21D;63505;45.226;37.908;2023-02-28T06:13:56;9.16;69.50
74940;HTU21D;63505;45.226;37.908;2023-02-28T06:16:24;9.18;69.63
74940;HTU21D;63505;45.226;37.908;2023-02-28T06:18:50;9.29;69.48
74940;HTU21D;63505;45.226;37.908;2023-02-28T06:21:16;9.36;69.36
74940;HTU21D;63505;45.226;37.908;2023-02-28T06:23:42;9.31;69.61
74940;HTU21D;63505;45.226;37.908;2023-02-28T06:26:08;9.32;69.81
74940;HTU21D;63505;45.226;37.908;2023-02-28T06:28:33;9.32;70.02
74940;HTU21D;63505;45.226;37.908;2023-02-28T06:30:59;9.37;70.07
74940;HTU21D;63505;45.226;37.908;2023-02-28T06:33:25;9.41;70.19
74940;HTU21D;63505;45.226;37.908;2023-02-28T06:35:52;9.60;70.20
74940;HTU21D;63505;45.226;37.908;2023-02-28T06:38:18;9.77;70.08
74940;HTU21D;63505;45.226;37.908;2023-02-28T06:40:44;9.85;70.00
74940;HTU21D;63505;45.226;37.908;2023-02-28T06:43:10;9.84;70.00
74940;HTU21D;63505;45.226;37.908;2023-02-28T06:45:43;9.80;70.21
74940;HTU21D;63505;45.226;37.908;2023-02-28T06:48:09;9.76;70.50
74940;HTU21D;63505;45.226;37.908;2023-02-28T06:50:36;9.83;70.70
74940;HTU21D;63505;45.226;37.908;2023-02-28T06:53:02;9.92;70.59
74940;HTU21D;63505;45.226;37.908;2023-02-28T06:55:28;9.90;70.55
74940;HTU21D;63505;45.226;37.908;2023-02-28T06:57:54;9.82;70.72
74940;HTU21D;63505;45.226;37.908;2023-02-28T07:00:21;9.77;70.96
74940;HTU21D;63505;45.226;37.908;2023-02-28T07:02:46;9.69;71.19
74940;HTU21D;63505;45.226;37.908;2023-02-28T07:05:13;9.60;71.51
74940;HTU21D;63505;45.226;37.908;2023-02-28T07:07:39;9.54;71.67
74940;HTU21D;63505;45.226;37.908;2023-02-28T07:10:10;9.47;71.94
74940;HTU21D;63505;45.226;37.908;2023-02-28T07:12:37;9.42;72.16
74940;HTU21D;63505;45.226;37.908;2023-02-28T07:15:04;9.48;72.24
74940;HTU21D;63505;45.226;37.908;2023-02-28T07:17:30;9.53;72.22
74940;HTU21D;63505;45.226;37.908;2023-02-28T07:19:56;9.50;72.31
74940;HTU21D;63505;45.226;37.908;2023-02-28T07:22:22;9.50;72.45
74940;HTU21D;63505;45.226;37.908;2023-02-28T07:24:48;9.57;72.51
74940;HTU21D;63505;45.226;37.908;2023-02-28T07:27:14;9.64;72.51
74940;HTU21D;63505;45.226;37.908;2023-02-28T07:29:49;9.72;72.53
74940;HTU21D;63505;45.226;37.908;2023-02-28T07:32:16;9.79;72.49
74940;HTU21D;63505;45.226;37.908;2023-02-28T07:34:41;9.76;72.77
74940;HTU21D;63505;45.226;37.908;2023-02-28T07:37:07;9.79;73.07
74940;HTU21D;63505;45.226;37.908;2023-02-28T07:39:33;9.84;73.10
74940;HTU21D;63505;45.226;37.908;2023-02-28T07:41:59;9.91;73.11
74940;HTU21D;63505;45.226;37.908;2023-02-28T07:44:26;9.97;73.14
74940;HTU21D;63505;45.226;37.908;2023-02-28T07:46:52;10.03;73.25
74940;HTU21D;63505;45.226;37.908;2023-02-28T07:49:18;10.09;73.24
74940;HTU21D;63505;45.226;37.908;2023-02-28T07:51:44;10.12;73.35
74940;HTU21D;63505;45.226;37.908;2023-02-28T07:54:10;10.19;73.53
74940;HTU21D;63505;45.226;37.908;2023-02-28T07:56:36;10.24;73.52
74940;HTU21D;63505;45.226;37.908;2023-02-28T07:59:02;10.29;73.59
74940;HTU21D;63505;45.226;37.908;2023-02-28T08:01:27;10.40;73.60
74940;HTU21D;63505;45.226;37.908;2023-02-28T08:03:54;10.57;73.44
74940;HTU21D;63505;45.226;37.908;2023-02-28T08:06:23;10.75;73.38
74940;HTU21D;63505;45.226;37.908;2023-02-28T08:08:50;10.89;73.14
74940;HTU21D;63505;45.226;37.908;2023-02-28T08:11:16;10.90;72.98
74940;HTU21D;63505;45.226;37.908;2023-02-28T08:13:43;10.87;73.14
74940;HTU21D;63505;45.226;37.908;2023-02-28T08:16:11;10.93;73.15
74940;HTU21D;63505;45.226;37.908;2023-02-28T08:18:37;10.96;73.19
74940;HTU21D;63505;45.226;37.908;2023-02-28T08:21:09;11.03;73.15
74940;HTU21D;63505;45.226;37.908;2023-02-28T08:23:36;11.08;73.05
74940;HTU21D;63505;45.226;37.908;2023-02-28T08:26:03;11.07;73.19
74940;HTU21D;63505;45.226;37.908;2023-02-28T08:28:29;11.13;73.15
74940;HTU21D;63505;45.226;37.908;2023-02-28T08:30:55;11.11;73.18
74940;HTU21D;63505;45.226;37.908;2023-02-28T08:33:22;11.15;73.21
74940;HTU21D;63505;45.226;37.908;2023-02-28T08:35:48;11.27;73.12
74940;HTU21D;63505;45.226;37.908;2023-02-28T08:38:14;11.37;72.94
74940;HTU21D;63505;45.226;37.908;2023-02-28T08:40:39;11.44;72.87
74940;HTU21D;63505;45.226;37.908;2023-02-28T08:43:06;11.49;72.82
74940;HTU21D;63505;45.226;37.908;2023-02-28T08:45:31;11.62;72.70
74940;HTU21D;63505;45.226;37.908;2023-02-28T08:47:57;11.79;72.50
74940;HTU21D;63505;45.226;37.908;2023-02-28T08:50:23;11.92;72.28
74940;HTU21D;63505;45.226;37.908;2023-02-28T08:52:49;12.03;72.10
74940;HTU21D;63505;45.226;37.908;2023-02-28T08:55:15;12.15;72.00
74940;HTU21D;63505;45.226;37.908;2023-02-28T08:57:41;12.22;71.77
74940;HTU21D;63505;45.226;37.908;2023-02-28T09:00:07;12.26;71.75
74940;HTU21D;63505;45.226;37.908;2023-02-28T09:02:34;12.30;71.67
74940;HTU21D;63505;45.226;37.908;2023-02-28T09:04:59;12.30;71.62
74940;HTU21D;63505;45.226;37.908;2023-02-28T09:07:25;12.27;71.67
74940;HTU21D;63505;45.226;37.908;2023-02-28T09:09:51;12.26;71.64
74940;HTU21D;63505;45.226;37.908;2023-02-28T09:12:33;12.26;71.68
74940;HTU21D;63505;45.226;37.908;2023-02-28T09:14:59;12.32;71.64
74940;HTU21D;63505;45.226;37.908;2023-02-28T09:17:24;12.31;71.58
74940;HTU21D;63505;45.226;37.908;2023-02-28T09:19:50;12.28;71.54
74940;HTU21D;63505;45.226;37.908;2023-02-28T09:22:16;12.17;71.68
74940;HTU21D;63505;45.226;37.908;2023-02-28T09:24:42;12.02;71.81
74940;HTU21D;63505;45.226;37.908;2023-02-28T09:27:10;11.89;72.14
74940;HTU21D;63505;45.226;37.908;2023-02-28T09:29:36;11.84;72.22
74940;HTU21D;63505;45.226;37.908;2023-02-28T09:32:03;11.82;72.29
74940;HTU21D;63505;45.226;37.908;2023-02-28T09:34:31;11.90;72.22
74940;HTU21D;63505;45.226;37.908;2023-02-28T09:36:57;11.91;72.16
74940;HTU21D;63505;45.226;37.908;2023-02-28T09:39:24;11.93;72.02
74940;HTU21D;63505;45.226;37.908;2023-02-28T09:41:53;11.91;72.03
74940;HTU21D;63505;45.226;37.908;2023-02-28T09:44:36;11.93;72.06
74940;HTU21D;63505;45.226;37.908;2023-02-28T09:47:25;11.94;72.00
74940;HTU21D;63505;45.226;37.908;2023-02-28T09:49:52;11.97;71.90
74940;HTU21D;63505;45.226;37.908;2023-02-28T09:52:21;11.96;71.81
74940;HTU21D;63505;45.226;37.908;2023-02-28T09:54:49;11.93;71.84
74940;HTU21D;63505;45.226;37.908;2023-02-28T10:05:11;11.98;71.55
74940;HTU21D;63505;45.226;37.908;2023-02-28T10:13:25;12.87;70.53
74940;HTU21D;63505;45.226;37.908;2023-02-28T10:15:56;13.14;69.90
74940;HTU21D;63505;45.226;37.908;2023-02-28T10:18:29;13.25;69.69
74940;HTU21D;63505;45.226;37.908;2023-02-28T10:20:56;13.54;69.35
74940;HTU21D;63505;45.226;37.908;2023-02-28T10:23:36;13.66;68.87
74940;HTU21D;63505;45.226;37.908;2023-02-28T10:26:11;13.64;68.75
74940;HTU21D;63505;45.226;37.908;2023-02-28T10:28:39;13.67;68.68
74940;HTU21D;63505;45.226;37.908;2023-02-28T10:31:11;13.58;68.48
74940;HTU21D;63505;45.226;37.908;2023-02-28T10:33:37;13.44;68.54
74940;HTU21D;63505;45.226;37.908;2023-02-28T10:36:04;13.23;68.61
74940;HTU21D;63505;45.226;37.908;2023-02-28T10:38:38;12.86;68.64
74940;HTU21D;63505;45.226;37.908;2023-02-28T10:41:11;12.47;69.09
74940;HTU21D;63505;45.226;37.908;2023-02-28T10:43:40;12.23;69.35
74940;HTU21D;63505;45.226;37.908;2023-02-28T10:51:07;11.30;70.30
74940;HTU21D;63505;45.226;37.908;2023-02-28T10:53:49;11.13;70.51
74940;HTU21D;63505;45.226;37.908;2023-02-28T10:56:22;11.00;70.62
74940;HTU21D;63505;45.226;37.908;2023-02-28T10:59:24;10.89;70.65
74940;HTU21D;63505;45.226;37.908;2023-02-28T11:01:47;10.77;70.65
74940;HTU21D;63505;45.226;37.908;2023-02-28T11:07:21;10.49;70.88
74940;HTU21D;63505;45.226;37.908;2023-02-28T11:09:55;10.37;71.06
74940;HTU21D;63505;45.226;37.908;2023-02-28T11:12:37;10.37;71.05
74940;HTU21D;63505;45.226;37.908;2023-02-28T11:15:20;10.37;71.06
74940;HTU21D;63505;45.226;37.908;2023-02-28T11:20:48;10.40;71.04
74940;HTU21D;63505;45.226;37.908;2023-02-28T11:23:15;10.40;71.22
74940;HTU21D;63505;45.226;37.908;2023-02-28T11:25:48;10.38;71.25
74940;HTU21D;63505;45.226;37.908;2023-02-28T11:28:32;10.39;71.42
74940;HTU21D;63505;45.226;37.908;2023-02-28T11:33:49;10.51;71.25
74940;HTU21D;63505;45.226;37.908;2023-02-28T11:36:23;10.50;71.27
74940;HTU21D;63505;45.226;37.908;2023-02-28T11:39:00;10.49;71.19
74940;HTU21D;63505;45.226;37.908;2023-02-28T11:55:16;11.10;70.44
74940;HTU21D;63505;45.226;37.908;2023-02-28T12:06:51;10.87;70.18
74940;HTU21D;63505;45.226;37.908;2023-02-28T12:29:24;9.65;71.17
74940;HTU21D;63505;45.226;37.908;2023-02-28T12:34:28;9.41;71.45
74940;HTU21D;63505;45.226;37.908;2023-02-28T12:37:02;9.42;71.47
74940;HTU21D;63505;45.226;37.908;2023-02-28T12:39:33;9.38;71.43
74940;HTU21D;63505;45.226;37.908;2023-02-28T12:42:07;9.33;71.56
74940;HTU21D;63505;45.226;37.908;2023-02-28T12:47:11;9.20;71.72
74940;HTU21D;63505;45.226;37.908;2023-02-28T12:49:43;9.21;71.66
74940;HTU21D;63505;45.226;37.908;2023-02-28T12:52:13;9.15;71.66
74940;HTU21D;63505;45.226;37.908;2023-02-28T12:54:55;9.10;71.84
74940;HTU21D;63505;45.226;37.908;2023-02-28T13:00:18;9.05;71.92
74940;HTU21D;63505;45.226;37.908;2023-02-28T13:02:57;8.95;72.06
74940;HTU21D;63505;45.226;37.908;2023-02-28T13:11:41;8.67;72.60
74940;HTU21D;63505;45.226;37.908;2023-02-28T13:14:29;8.57;72.83
74940;HTU21D;63505;45.226;37.908;2023-02-28T13:19:33;8.52;72.90
74940;HTU21D;63505;45.226;37.908;2023-02-28T13:22:00;8.46;73.00
74940;HTU21D;63505;45.226;37.908;2023-02-28T13:24:38;8.43;73.12
74940;HTU21D;63505;45.226;37.908;2023-02-28T13:29:33;8.30;73.19
74940;HTU21D;63505;45.226;37.908;2023-02-28T13:34:35;8.21;73.34
74940;HTU21D;63505;45.226;37.908;2023-02-28T13:39:49;8.16;73.45
74940;HTU21D;63505;45.226;37.908;2023-02-28T13:47:53;8.09;73.52
74940;HTU21D;63505;45.226;37.908;2023-02-28T13:55:37;7.90;73.68
74940;HTU21D;63505;45.226;37.908;2023-02-28T13:58:19;7.85;73.77
74940;HTU21D;63505;45.226;37.908;2023-02-28T14:06:25;7.63;74.03
74940;HTU21D;63505;45.226;37.908;2023-02-28T14:11:39;7.47;74.15
74940;HTU21D;63505;45.226;37.908;2023-02-28T14:14:07;7.35;74.35
74940;HTU21D;63505;45.226;37.908;2023-02-28T14:16:45;7.32;74.41
74940;HTU21D;63505;45.226;37.908;2023-02-28T14:19:21;7.22;74.51
74940;HTU21D;63505;45.226;37.908;2023-02-28T14:32:34;6.83;75.31
74940;HTU21D;63505;45.226;37.908;2023-02-28T14:38:06;6.66;75.58
74940;HTU21D;63505;45.226;37.908;2023-02-28T14:40:38;6.61;75.66
74940;HTU21D;63505;45.226;37.908;2023-02-28T14:43:06;6.58;75.70
74940;HTU21D;63505;45.226;37.908;2023-02-28T14:45:34;6.57;75.62
74940;HTU21D;63505;45.226;37.908;2023-02-28T14:48:02;6.54;75.58
74940;HTU21D;63505;45.226;37.908;2023-02-28T14:50:32;6.46;75.70
74940;HTU21D;63505;45.226;37.908;2023-02-28T14:52:59;6.45;75.74
74940;HTU21D;63505;45.226;37.908;2023-02-28T14:55:35;6.42;75.74
74940;HTU21D;63505;45.226;37.908;2023-02-28T14:58:03;6.38;75.87
74940;HTU21D;63505;45.226;37.908;2023-02-28T15:00:36;6.37;75.84
74940;HTU21D;63505;45.226;37.908;2023-02-28T15:03:39;6.37;75.84
74940;HTU21D;63505;45.226;37.908;2023-02-28T15:06:14;6.31;75.90
74940;HTU21D;63505;45.226;37.908;2023-02-28T15:08:40;6.33;75.90
74940;HTU21D;63505;45.226;37.908;2023-02-28T15:11:26;6.37;75.79
74940;HTU21D;63505;45.226;37.908;2023-02-28T15:13:53;6.37;75.74
74940;HTU21D;63505;45.226;37.908;2023-02-28T15:16:26;6.35;75.79
74940;HTU21D;63505;45.226;37.908;2023-02-28T15:19:02;6.33;75.83
74940;HTU21D;63505;45.226;37.908;2023-02-28T15:21:35;6.33;75.85
74940;HTU21D;63505;45.226;37.908;2023-02-28T15:24:10;6.33;75.86
74940;HTU21D;63505;45.226;37.908;2023-02-28T15:26:43;6.34;75.83
74940;HTU21D;63505;45.226;37.908;2023-02-28T15:29:19;6.37;75.82
74940;HTU21D;63505;45.226;37.908;2023-02-28T15:31:57;6.41;75.76
74940;HTU21D;63505;45.226;37.908;2023-02-28T15:34:38;6.40;75.75
74940;HTU21D;63505;45.226;37.908;2023-02-28T15:37:25;6.40;75.83
74940;HTU21D;63505;45.226;37.908;2023-02-28T15:39:53;6.39;75.83
74940;HTU21D;63505;45.226;37.908;2023-02-28T15:42:21;6.37;75.89
74940;HTU21D;63505;45.226;37.908;2023-02-28T15:44:48;6.35;75.98
74940;HTU21D;63505;45.226;37.908;2023-02-28T15:47:21;6.35;76.02
74940;HTU21D;63505;45.226;37.908;2023-02-28T15:49:53;6.31;76.08
74940;HTU21D;63505;45.226;37.908;2023-02-28T15:52:41;6.33;76.10
74940;HTU21D;63505;45.226;37.908;2023-02-28T15:57:44;6.29;76.17
74940;HTU21D;63505;45.226;37.908;2023-02-28T16:00:14;6.29;76.18
74940;HTU21D;63505;45.226;37.908;2023-02-28T16:02:41;6.30;76.18
74940;HTU21D;63505;45.226;37.908;2023-02-28T16:07:38;6.35;76.11
74940;HTU21D;63505;45.226;37.908;2023-02-28T16:10:05;6.36;76.04
74940;HTU21D;63505;45.226;37.908;2023-02-28T16:12:35;6.34;76.05
74940;HTU21D;63505;45.226;37.908;2023-02-28T16:15:05;6.29;76.14
74940;HTU21D;63505;45.226;37.908;2023-02-28T16:17:38;6.28;76.24
74940;HTU21D;63505;45.226;37.908;2023-02-28T16:22:50;6.27;76.31
74940;HTU21D;63505;45.226;37.908;2023-02-28T16:25:20;6.27;76.33
74940;HTU21D;63505;45.226;37.908;2023-02-28T16:27:48;6.26;76.34
74940;HTU21D;63505;45.226;37.908;2023-02-28T16:30:27;6.25;76.37
74940;HTU21D;63505;45.226;37.908;2023-02-28T16:32:55;6.23;76.37
74940;HTU21D;63505;45.226;37.908;2023-02-28T16:35:21;6.21;76.43
74940;HTU21D;63505;45.226;37.908;2023-02-28T16:37:48;6.17;76.52
74940;HTU21D;63505;45.226;37.908;2023-02-28T16:40:18;6.15;76.58
74940;HTU21D;63505;45.226;37.908;2023-02-28T16:42:48;6.13;76.63
74940;HTU21D;63505;45.226;37.908;2023-02-28T16:45:17;6.14;76.66
74940;HTU21D;63505;45.226;37.908;2023-02-28T16:47:45;6.14;76.67
74940;HTU21D;63505;45.226;37.908;2023-02-28T16:50:21;6.16;76.62
74940;HTU21D;63505;45.226;37.908;2023-02-28T16:52:48;6.17;76.57
74940;HTU21D;63505;45.226;37.908;2023-02-28T16:55:15;6.20;76.55
74940;HTU21D;63505;45.226;37.908;2023-02-28T16:57:41;6.19;76.50
74940;HTU21D;63505;45.226;37.908;2023-02-28T17:00:12;6.17;76.49
74940;HTU21D;63505;45.226;37.908;2023-02-28T17:02:38;6.19;76.48
74940;HTU21D;63505;45.226;37.908;2023-02-28T17:05:05;6.17;76.47
74940;HTU21D;63505;45.226;37.908;2023-02-28T17:07:32;6.16;76.51
74940;HTU21D;63505;45.226;37.908;2023-02-28T17:09:58;6.16;76.56
74940;HTU21D;63505;45.226;37.908;2023-02-28T17:12:26;6.21;76.52
74940;HTU21D;63505;45.226;37.908;2023-02-28T17:14:52;6.22;76.47
74940;HTU21D;63505;45.226;37.908;2023-02-28T17:17:21;6.24;76.41
74940;HTU21D;63505;45.226;37.908;2023-02-28T17:19:47;6.22;76.39
74940;HTU21D;63505;45.226;37.908;2023-02-28T17:22:13;6.23;76.41
74940;HTU21D;63505;45.226;37.908;2023-02-28T17:24:40;6.24;76.37
74940;HTU21D;63505;45.226;37.908;2023-02-28T17:27:10;6.25;76.33
74940;HTU21D;63505;45.226;37.908;2023-02-28T17:29:36;6.26;76.31
74940;HTU21D;63505;45.226;37.908;2023-02-28T17:32:02;6.26;76.34
74940;HTU21D;63505;45.226;37.908;2023-02-28T17:34:28;6.27;76.31
74940;HTU21D;63505;45.226;37.908;2023-02-28T17:36:54;6.28;76.29
74940;HTU21D;63505;45.226;37.908;2023-02-28T17:39:20;6.27;76.28
74940;HTU21D;63505;45.226;37.908;2023-02-28T17:41:54;6.25;76.29
74940;HTU21D;63505;45.226;37.908;2023-02-28T17:44:21;6.26;76.32
74940;HTU21D;63505;45.226;37.908;2023-02-28T17:46:48;6.24;76.34
74940;HTU21D;63505;45.226;37.908;2023-02-28T17:49:16;6.23;76.34
74940;HTU21D;63505;45.226;37.908;2023-02-28T17:51:42;6.23;76.31
74940;HTU21D;63505;45.226;37.908;2023-02-28T17:54:07;6.25;76.30
74940;HTU21D;63505;45.226;37.908;2023-02-28T17:56:33;6.26;76.24
74940;HTU21D;63505;45.226;37.908;2023-02-28T17:58:59;6.25;76.24
74940;HTU21D;63505;45.226;37.908;2023-02-28T18:01:26;6.25;76.23
74940;HTU21D;63505;45.226;37.908;2023-02-28T18:03:53;6.23;76.18
74940;HTU21D;63505;45.226;37.908;2023-02-28T18:06:22;6.22;76.18
74940;HTU21D;63505;45.226;37.908;2023-02-28T18:08:48;6.21;76.18
74940;HTU21D;63505;45.226;37.908;2023-02-28T18:11:21;6.25;76.17
74940;HTU21D;63505;45.226;37.908;2023-02-28T18:13:49;6.25;76.09